createdAt,value
2022-11-29T00:00:09.719Z,9.00
2022-11-29T00:02:34.792Z,8.99
2022-11-29T00:04:56.915Z,8.98
2022-11-29T00:07:18.883Z,8.99
2022-11-29T00:09:40.992Z,8.99
2022-11-29T00:12:14.744Z,8.99
2022-11-29T00:14:36.739Z,8.99
2022-11-29T00:17:04.504Z,8.99
2022-11-29T00:19:26.648Z,8.99
2022-11-29T00:21:49.158Z,9.02
2022-11-29T00:24:11.213Z,9.02
2022-11-29T00:26:33.366Z,9.04
2022-11-29T00:28:55.776Z,9.06
2022-11-29T00:31:20.533Z,9.08
2022-11-29T00:33:42.931Z,9.08
2022-11-29T00:36:05.255Z,9.10
2022-11-29T00:38:28.195Z,9.12
2022-11-29T00:40:53.315Z,9.12
2022-11-29T00:43:15.170Z,9.13
2022-11-29T00:45:37.182Z,9.13
2022-11-29T00:47:59.219Z,9.16
2022-11-29T00:50:21.229Z,9.17
2022-11-29T00:52:43.603Z,9.18
2022-11-29T00:55:06.416Z,9.20
2022-11-29T00:57:28.670Z,9.19
2022-11-29T00:59:50.581Z,9.19
2022-11-29T01:02:12.484Z,9.20
2022-11-29T01:04:34.313Z,9.19
2022-11-29T01:06:56.216Z,9.17
2022-11-29T01:09:19.263Z,9.15
2022-11-29T01:11:41.270Z,9.12
2022-11-29T01:14:04.107Z,9.10
2022-11-29T01:16:28.891Z,9.09
2022-11-29T01:18:50.989Z,9.06
2022-11-29T01:21:16.637Z,9.06
2022-11-29T01:23:39.811Z,9.05
2022-11-29T01:26:09.437Z,9.02
2022-11-29T01:28:31.996Z,9.00
2022-11-29T01:30:54.339Z,8.97
2022-11-29T01:33:16.442Z,8.93
2022-11-29T01:35:38.561Z,8.89
2022-11-29T01:38:00.676Z,8.85
2022-11-29T01:40:22.673Z,8.84
2022-11-29T01:42:44.898Z,8.80
2022-11-29T01:45:24.776Z,8.78
2022-11-29T01:47:51.853Z,8.75
2022-11-29T01:50:14.737Z,8.74
2022-11-29T01:52:37.134Z,8.74
2022-11-29T01:55:06.102Z,8.73
2022-11-29T01:57:30.154Z,8.73
2022-11-29T02:00:03.063Z,8.73
2022-11-29T02:02:43.014Z,8.72
2022-11-29T02:05:06.366Z,8.72
2022-11-29T02:07:28.555Z,8.70
2022-11-29T02:09:50.579Z,8.68
2022-11-29T02:12:46.563Z,8.67
2022-11-29T02:15:33.660Z,8.64
2022-11-29T02:18:08.834Z,8.59
2022-11-29T02:20:52.254Z,8.56
2022-11-29T02:23:54.226Z,8.51
2022-11-29T02:27:09.939Z,8.48
2022-11-29T02:30:06.606Z,8.39
2022-11-29T02:33:15.002Z,8.39
2022-11-29T02:36:29.663Z,8.42
2022-11-29T02:39:00.543Z,8.42
2022-11-29T02:42:01.019Z,8.45
2022-11-29T02:44:49.861Z,8.47
2022-11-29T02:47:48.887Z,8.50
2022-11-29T02:50:20.472Z,8.49
2022-11-29T02:52:50.439Z,8.52
2022-11-29T02:55:24.810Z,8.52
2022-11-29T02:58:15.500Z,8.55
2022-11-29T03:00:54.710Z,8.57
2022-11-29T03:03:35.518Z,8.59
2022-11-29T03:06:42.715Z,8.61
2022-11-29T03:09:23.194Z,8.61
2022-11-29T03:12:00.978Z,8.64
2022-11-29T03:14:53.483Z,8.67
2022-11-29T03:18:00.383Z,8.71
2022-11-29T03:20:28.048Z,8.72
2022-11-29T03:23:05.508Z,8.75
2022-11-29T03:25:57.636Z,8.76
2022-11-29T03:28:25.314Z,8.77
2022-11-29T03:31:01.478Z,8.77
2022-11-29T03:34:24.129Z,8.78
2022-11-29T03:37:35.440Z,8.78
2022-11-29T03:40:08.016Z,8.79
2022-11-29T03:42:45.611Z,8.78
2022-11-29T03:45:13.686Z,8.78
2022-11-29T03:47:48.944Z,8.79
2022-11-29T03:50:22.582Z,8.81
2022-11-29T03:53:08.701Z,8.83
2022-11-29T03:55:32.374Z,8.85
2022-11-29T03:58:21.727Z,8.85
2022-11-29T04:01:55.420Z,8.85
2022-11-29T04:04:58.930Z,8.85
2022-11-29T04:13:35.650Z,8.90
2022-11-29T04:17:04.851Z,8.93
2022-11-29T04:19:55.976Z,8.91
2022-11-29T04:22:36.682Z,8.90
2022-11-29T04:43:59.303Z,8.67
2022-11-29T04:46:47.540Z,8.65
2022-11-29T04:55:30.927Z,8.57
2022-11-29T04:58:08.788Z,8.60
2022-11-29T05:00:52.078Z,8.62
2022-11-29T05:03:35.946Z,8.62
2022-11-29T05:06:23.386Z,8.62
2022-11-29T05:16:00.459Z,8.67
2022-11-29T05:27:01.491Z,8.70
2022-11-29T05:29:39.895Z,8.71
2022-11-29T05:32:30.865Z,8.74
2022-11-29T05:35:22.831Z,8.76
2022-11-29T05:38:01.520Z,8.75
2022-11-29T05:44:24.638Z,8.81
2022-11-29T05:46:59.650Z,8.83
2022-11-29T05:49:29.091Z,8.83
2022-11-29T05:52:24.618Z,8.84
2022-11-29T05:55:13.858Z,8.86
2022-11-29T05:58:17.595Z,8.87
2022-11-29T06:01:07.538Z,8.88
2022-11-29T06:04:46.133Z,8.87
2022-11-29T06:07:32.787Z,8.86
2022-11-29T06:10:02.539Z,8.87
2022-11-29T06:12:26.952Z,8.89
2022-11-29T06:15:20.363Z,8.89
2022-11-29T06:22:54.607Z,8.92
2022-11-29T06:33:50.171Z,8.89
2022-11-29T06:36:21.105Z,8.89
2022-11-29T06:38:43.636Z,8.91
2022-11-29T06:41:06.323Z,8.93
2022-11-29T06:43:28.837Z,8.93
2022-11-29T06:46:10.098Z,8.94
2022-11-29T06:48:46.405Z,8.92
2022-11-29T07:01:05.091Z,8.82
2022-11-29T07:03:55.403Z,8.82
2022-11-29T07:06:31.903Z,8.82
2022-11-29T07:09:18.401Z,8.82
2022-11-29T07:11:41.748Z,8.79
2022-11-29T07:14:04.210Z,8.81
2022-11-29T07:17:09.331Z,8.84
2022-11-29T07:19:46.184Z,8.83
2022-11-29T07:22:41.216Z,8.84
2022-11-29T07:25:55.640Z,8.85
2022-11-29T07:28:25.850Z,8.84
2022-11-29T07:31:45.291Z,8.84
2022-11-29T07:34:10.376Z,8.82
2022-11-29T07:37:11.467Z,8.81
2022-11-29T07:39:54.963Z,8.77
2022-11-29T07:43:00.644Z,8.78
2022-11-29T07:45:32.134Z,8.75
2022-11-29T07:47:54.573Z,8.74
2022-11-29T07:50:18.996Z,8.76
2022-11-29T07:52:40.960Z,8.72
2022-11-29T07:55:03.051Z,8.68
2022-11-29T07:57:24.934Z,8.66
2022-11-29T07:59:46.910Z,8.65
2022-11-29T08:02:12.272Z,8.69
2022-11-29T08:04:34.501Z,8.69
2022-11-29T08:07:01.021Z,8.71
2022-11-29T08:09:22.820Z,8.69
2022-11-29T08:11:44.948Z,8.66
2022-11-29T08:14:07.038Z,8.62
2022-11-29T08:16:29.453Z,8.61
2022-11-29T08:18:53.967Z,8.61
2022-11-29T08:21:18.156Z,8.61
2022-11-29T08:23:40.020Z,8.62
2022-11-29T08:26:03.758Z,8.65
2022-11-29T08:28:25.811Z,8.66
2022-11-29T08:30:47.860Z,8.67
2022-11-29T08:33:09.723Z,8.65
2022-11-29T08:35:31.904Z,8.61
2022-11-29T08:37:54.376Z,8.56
2022-11-29T08:40:17.775Z,8.53
2022-11-29T08:42:39.632Z,8.51
2022-11-29T08:45:01.470Z,8.49
2022-11-29T08:47:38.506Z,8.49
2022-11-29T08:50:03.046Z,8.51
2022-11-29T08:52:43.540Z,8.51
2022-11-29T08:55:06.022Z,8.50
2022-11-29T08:57:43.177Z,8.53
2022-11-29T09:00:07.015Z,8.56
2022-11-29T09:02:28.898Z,8.54
2022-11-29T09:04:50.902Z,8.55
2022-11-29T09:07:12.798Z,8.55
2022-11-29T09:09:34.623Z,8.56
2022-11-29T09:11:56.470Z,8.56
2022-11-29T09:14:18.609Z,8.52
2022-11-29T09:16:40.674Z,8.49
2022-11-29T09:19:05.208Z,8.49
2022-11-29T09:21:29.249Z,8.48
2022-11-29T09:28:18.039Z,8.43
2022-11-29T09:30:39.969Z,8.41
2022-11-29T09:33:05.240Z,8.39
2022-11-29T09:35:27.277Z,8.39
2022-11-29T09:37:49.136Z,8.39
2022-11-29T09:40:31.224Z,8.43
2022-11-29T09:43:32.216Z,8.47
2022-11-29T09:46:16.241Z,8.46
2022-11-29T09:49:08.909Z,8.49
2022-11-29T09:51:51.292Z,8.51
2022-11-29T09:54:42.611Z,8.52
2022-11-29T09:57:10.564Z,8.53
2022-11-29T09:59:42.979Z,8.53
2022-11-29T10:02:25.223Z,8.54
2022-11-29T10:04:58.011Z,8.59
2022-11-29T10:07:34.355Z,8.65
2022-11-29T10:10:30.148Z,8.71
2022-11-29T10:13:07.343Z,8.68
2022-11-29T10:15:39.299Z,8.65
2022-11-29T10:18:18.805Z,8.66
2022-11-29T10:20:48.986Z,8.68
2022-11-29T10:23:38.809Z,8.68
2022-11-29T10:26:00.729Z,8.64
2022-11-29T10:28:31.389Z,8.63
2022-11-29T10:31:08.772Z,8.65
2022-11-29T10:33:39.575Z,8.64
2022-11-29T10:41:22.770Z,8.53
2022-11-29T10:43:45.023Z,8.56
2022-11-29T10:46:27.238Z,8.61
2022-11-29T10:48:49.300Z,8.60
2022-11-29T10:51:18.139Z,8.63
2022-11-29T10:53:40.184Z,8.67
2022-11-29T10:56:33.492Z,8.73
2022-11-29T10:59:06.348Z,8.69
2022-11-29T11:01:30.043Z,8.68
2022-11-29T11:03:58.669Z,8.73
2022-11-29T11:06:26.785Z,8.76
2022-11-29T11:08:57.740Z,8.77
2022-11-29T11:11:32.841Z,8.81
2022-11-29T11:14:24.419Z,8.84
2022-11-29T11:16:46.394Z,8.81
2022-11-29T11:19:30.399Z,8.79
2022-11-29T11:21:52.347Z,8.76
2022-11-29T11:24:27.011Z,8.77
2022-11-29T11:26:48.914Z,8.78
2022-11-29T11:29:21.257Z,8.82
2022-11-29T11:31:43.172Z,8.81
2022-11-29T11:34:34.190Z,8.81
2022-11-29T11:37:16.591Z,8.75
2022-11-29T11:39:38.551Z,8.69
2022-11-29T11:42:21.447Z,8.65
2022-11-29T11:44:53.448Z,8.61
2022-11-29T11:47:43.846Z,8.62
2022-11-29T11:50:16.743Z,8.63
2022-11-29T11:52:54.000Z,8.66
2022-11-29T11:55:47.442Z,8.71
2022-11-29T11:58:12.290Z,8.74
2022-11-29T12:01:02.954Z,8.78
2022-11-29T12:03:35.960Z,8.77
2022-11-29T12:06:36.492Z,8.74
2022-11-29T12:09:19.471Z,8.71
2022-11-29T12:16:37.088Z,8.68
2022-11-29T12:19:55.440Z,8.69
2022-11-29T12:22:28.134Z,8.62
2022-11-29T12:29:20.101Z,8.51
2022-11-29T12:32:26.635Z,8.49
2022-11-29T12:42:12.424Z,8.50
2022-11-29T12:54:22.791Z,8.53
2022-11-29T13:04:04.888Z,8.60
2022-11-29T13:06:44.572Z,8.63
2022-11-29T13:18:59.320Z,8.71
2022-11-29T13:21:35.847Z,8.74
2022-11-29T13:28:35.511Z,8.76
2022-11-29T13:31:02.907Z,8.83
2022-11-29T13:33:54.056Z,8.87
2022-11-29T13:36:30.056Z,8.90
2022-11-29T13:39:26.643Z,8.94
2022-11-29T13:42:19.001Z,8.98
2022-11-29T13:44:53.526Z,9.03
2022-11-29T13:47:19.378Z,9.09
2022-11-29T13:54:41.477Z,9.06
2022-11-29T13:57:08.193Z,9.07
2022-11-29T13:59:33.738Z,9.07
2022-11-29T14:01:57.040Z,9.10
2022-11-29T14:04:32.789Z,9.12
2022-11-29T14:07:19.568Z,9.17
2022-11-29T14:09:58.500Z,9.20
2022-11-29T14:12:40.731Z,9.24
2022-11-29T14:15:28.450Z,9.26
2022-11-29T14:17:58.499Z,9.28
2022-11-29T14:20:23.320Z,9.29
2022-11-29T14:23:03.955Z,9.31
2022-11-29T14:28:14.329Z,9.29
2022-11-29T14:31:02.013Z,9.30
2022-11-29T14:33:48.740Z,9.30
2022-11-29T14:36:53.999Z,9.28
2022-11-29T14:39:31.383Z,9.28
2022-11-29T14:42:18.880Z,9.28
2022-11-29T14:44:49.707Z,9.27
2022-11-29T14:47:26.874Z,9.32
2022-11-29T14:49:48.904Z,9.32
2022-11-29T14:52:13.709Z,9.35
2022-11-29T14:54:55.826Z,9.39
2022-11-29T14:58:03.739Z,9.43
2022-11-29T15:00:55.444Z,9.43
2022-11-29T15:03:27.110Z,9.43
2022-11-29T15:06:09.894Z,9.43
2022-11-29T15:08:50.242Z,9.41
2022-11-29T15:11:33.662Z,9.42
2022-11-29T15:13:59.402Z,9.43
2022-11-29T15:17:05.888Z,9.43
2022-11-29T15:19:55.074Z,9.42
2022-11-29T15:22:26.599Z,9.41
2022-11-29T15:25:11.836Z,9.38
2022-11-29T15:27:38.724Z,9.33
2022-11-29T15:30:33.501Z,9.30
2022-11-29T15:32:58.201Z,9.27
2022-11-29T15:35:20.893Z,9.26
2022-11-29T15:37:44.734Z,9.24
2022-11-29T15:40:20.502Z,9.20
2022-11-29T15:42:53.612Z,9.17
2022-11-29T15:45:38.617Z,9.14
2022-11-29T15:48:28.669Z,9.15
2022-11-29T15:51:06.526Z,9.13
2022-11-29T15:53:41.329Z,9.14
2022-11-29T15:56:15.271Z,9.13
2022-11-29T15:58:38.121Z,9.10
2022-11-29T16:01:02.156Z,9.07
2022-11-29T16:03:33.055Z,9.03
2022-11-29T16:06:30.285Z,8.98
2022-11-29T16:08:53.899Z,8.91
2022-11-29T16:11:22.495Z,8.89
2022-11-29T16:14:24.254Z,8.85
2022-11-29T16:16:52.538Z,8.79
2022-11-29T16:19:31.557Z,8.77
2022-11-29T16:22:08.740Z,8.76
2022-11-29T16:24:34.625Z,8.72
2022-11-29T16:27:00.286Z,8.68
2022-11-29T16:29:29.990Z,8.66
2022-11-29T16:31:53.018Z,8.64
2022-11-29T16:34:33.050Z,8.64
2022-11-29T16:37:07.367Z,8.66
2022-11-29T16:39:29.990Z,8.66
2022-11-29T16:42:22.048Z,8.71
2022-11-29T16:44:47.112Z,8.71
2022-11-29T16:47:25.586Z,8.76
2022-11-29T16:50:32.393Z,8.79
2022-11-29T16:52:56.803Z,8.80
2022-11-29T16:55:19.192Z,8.82
2022-11-29T16:57:41.487Z,8.86
2022-11-29T17:00:31.765Z,8.89
2022-11-29T17:02:53.703Z,8.90
2022-11-29T17:05:15.850Z,8.92
2022-11-29T17:07:40.346Z,8.93
2022-11-29T17:10:08.526Z,8.90
2022-11-29T17:12:30.383Z,8.87
2022-11-29T17:14:52.455Z,8.90
2022-11-29T17:17:17.903Z,8.89
2022-11-29T17:19:39.768Z,8.90
2022-11-29T17:22:01.786Z,8.89
2022-11-29T17:24:24.600Z,8.90
2022-11-29T17:26:46.576Z,8.91
2022-11-29T17:29:11.232Z,8.92
2022-11-29T17:31:33.224Z,8.93
2022-11-29T17:33:55.385Z,8.92
2022-11-29T17:36:21.023Z,8.94
2022-11-29T17:38:45.442Z,8.94
2022-11-29T17:41:13.689Z,8.94
2022-11-29T17:43:37.421Z,8.92
2022-11-29T17:45:59.285Z,8.89
2022-11-29T17:48:21.166Z,8.90
2022-11-29T17:50:43.019Z,8.89
2022-11-29T17:53:05.518Z,8.88
2022-11-29T17:55:29.672Z,8.86
2022-11-29T17:57:51.660Z,8.86
2022-11-29T18:00:15.559Z,8.84
2022-11-29T18:02:37.456Z,8.83
2022-11-29T18:04:59.292Z,8.82
2022-11-29T18:07:21.336Z,8.76
2022-11-29T18:09:44.280Z,8.73
2022-11-29T18:12:06.569Z,8.72
2022-11-29T18:14:29.101Z,8.72
2022-11-29T18:16:52.141Z,8.73
2022-11-29T18:19:20.696Z,8.72
2022-11-29T18:21:43.063Z,8.72
2022-11-29T18:24:07.518Z,8.71
2022-11-29T18:26:30.935Z,8.68
2022-11-29T18:28:53.378Z,8.63
2022-11-29T18:31:19.390Z,8.63
2022-11-29T18:33:43.780Z,8.65
2022-11-29T18:36:10.363Z,8.66
2022-11-29T18:38:33.132Z,8.67
2022-11-29T18:40:54.981Z,8.65
2022-11-29T18:43:16.812Z,8.64
2022-11-29T18:45:38.905Z,8.65
2022-11-29T18:48:00.828Z,8.64
2022-11-29T18:50:22.628Z,8.61
2022-11-29T18:52:44.410Z,8.62
2022-11-29T18:55:06.692Z,8.64
2022-11-29T18:57:28.522Z,8.65
2022-11-29T18:59:50.812Z,8.69
2022-11-29T19:02:14.527Z,8.70
2022-11-29T19:04:37.214Z,8.71
2022-11-29T19:06:59.077Z,8.72
2022-11-29T19:09:22.188Z,8.69
2022-11-29T19:11:44.217Z,8.68
2022-11-29T19:14:12.798Z,8.72
2022-11-29T19:16:35.201Z,8.69
2022-11-29T19:18:59.847Z,8.68
2022-11-29T19:21:24.991Z,8.68
2022-11-29T19:23:56.758Z,8.71
2022-11-29T19:26:19.256Z,8.71
2022-11-29T19:28:44.399Z,8.70
2022-11-29T19:31:07.341Z,8.70
2022-11-29T19:33:29.181Z,8.66
2022-11-29T19:35:51.337Z,8.66
2022-11-29T19:38:14.610Z,8.66
2022-11-29T19:40:39.938Z,8.65
2022-11-29T19:43:01.984Z,8.63
2022-11-29T19:45:23.938Z,8.63
2022-11-29T19:47:45.952Z,8.65
2022-11-29T19:50:08.709Z,8.66
2022-11-29T19:52:31.337Z,8.63
2022-11-29T19:54:53.297Z,8.63
2022-11-29T19:57:15.459Z,8.63
2022-11-29T19:59:37.486Z,8.65
2022-11-29T20:01:59.746Z,8.66
2022-11-29T20:04:21.783Z,8.63
2022-11-29T20:06:44.509Z,8.62
2022-11-29T20:09:07.038Z,8.60
2022-11-29T20:11:28.833Z,8.61
2022-11-29T20:14:00.514Z,8.61
2022-11-29T20:16:23.436Z,8.63
2022-11-29T20:18:51.237Z,8.60
2022-11-29T20:21:33.938Z,8.61
2022-11-29T20:23:59.245Z,8.61
2022-11-29T20:26:21.236Z,8.61
2022-11-29T20:28:44.479Z,8.62
2022-11-29T20:31:12.908Z,8.63
2022-11-29T20:33:35.116Z,8.63
2022-11-29T20:36:11.780Z,8.64
2022-11-29T20:39:04.155Z,8.65
2022-11-29T20:42:10.338Z,8.63
2022-11-29T20:44:44.349Z,8.61
2022-11-29T20:47:21.899Z,8.62
2022-11-29T20:49:45.011Z,8.64
2022-11-29T20:52:29.424Z,8.64
2022-11-29T20:54:51.547Z,8.62
2022-11-29T20:57:13.359Z,8.63
2022-11-29T20:59:35.424Z,8.63
2022-11-29T21:01:57.666Z,8.65
2022-11-29T21:04:23.312Z,8.67
2022-11-29T21:06:45.881Z,8.67
2022-11-29T21:09:08.862Z,8.66
2022-11-29T21:11:31.353Z,8.66
2022-11-29T21:13:53.538Z,8.65
2022-11-29T21:16:16.112Z,8.65
2022-11-29T21:18:38.664Z,8.67
2022-11-29T21:21:32.758Z,8.66
2022-11-29T21:24:27.426Z,8.64
2022-11-29T21:26:55.115Z,8.61
2022-11-29T21:29:23.155Z,8.60
2022-11-29T21:31:47.788Z,8.62
2022-11-29T21:34:10.091Z,8.62
2022-11-29T21:36:32.383Z,8.62
2022-11-29T21:38:55.422Z,8.62
2022-11-29T21:41:17.662Z,8.62
2022-11-29T21:44:09.005Z,8.64
2022-11-29T21:46:22.717Z,8.64
2022-11-29T21:48:44.923Z,8.62
2022-11-29T21:51:10.997Z,8.64
2022-11-29T21:53:35.112Z,8.65
2022-11-29T21:56:03.459Z,8.65
2022-11-29T21:58:28.171Z,8.65
2022-11-29T22:00:50.055Z,8.64
2022-11-29T22:03:12.011Z,8.62
2022-11-29T22:05:34.332Z,8.61
2022-11-29T22:07:57.010Z,8.59
2022-11-29T22:10:19.266Z,8.60
2022-11-29T22:12:51.324Z,8.57
2022-11-29T22:15:19.073Z,8.56
2022-11-29T22:17:43.749Z,8.55
2022-11-29T22:20:07.531Z,8.55
2022-11-29T22:22:30.185Z,8.57
2022-11-29T22:24:52.062Z,8.56
2022-11-29T22:27:13.911Z,8.57
2022-11-29T22:29:36.064Z,8.56
2022-11-29T22:31:59.448Z,8.57
2022-11-29T22:34:25.274Z,8.58
2022-11-29T22:36:48.238Z,8.59
2022-11-29T22:39:10.420Z,8.59
2022-11-29T22:41:34.351Z,8.58
2022-11-29T22:43:56.245Z,8.58
2022-11-29T22:46:23.990Z,8.58
2022-11-29T22:48:49.766Z,8.58
2022-11-29T22:51:20.558Z,8.59
2022-11-29T22:53:52.310Z,8.57
2022-11-29T22:56:14.737Z,8.55
2022-11-29T22:58:37.168Z,8.54
2022-11-29T23:01:19.775Z,8.54
2022-11-29T23:03:45.166Z,8.51
2022-11-29T23:06:11.278Z,8.49
2022-11-29T23:08:34.776Z,8.47
2022-11-29T23:10:58.269Z,8.46
2022-11-29T23:13:20.201Z,8.44
2022-11-29T23:15:41.959Z,8.45
2022-11-29T23:18:04.025Z,8.45
2022-11-29T23:20:26.011Z,8.46
2022-11-29T23:22:48.066Z,8.45
2022-11-29T23:25:10.110Z,8.45
2022-11-29T23:27:32.183Z,8.45
2022-11-29T23:29:54.337Z,8.46
2022-11-29T23:32:16.396Z,8.47
2022-11-29T23:34:38.418Z,8.47
2022-11-29T23:37:00.543Z,8.48
2022-11-29T23:39:22.744Z,8.49
2022-11-29T23:41:44.739Z,8.50
2022-11-29T23:44:09.368Z,8.49
2022-11-29T23:46:31.475Z,8.50
2022-11-29T23:48:53.694Z,8.50
2022-11-29T23:51:17.253Z,8.52
2022-11-29T23:53:40.561Z,8.52
2022-11-29T23:56:07.190Z,8.52
2022-11-29T23:58:31.492Z,8.51
